Stamford Pioneer — VRJD7 — position and weather

sailwx.info

Track history (hours):
 
Tides and Currents Weather Stations Pressure Air Temp Water Temp Dewpoint Dewpoint Depression Visibility Wind Speed Wind Dir Waves Ship Positions

Stamford Pioneer

Last reported at 2018-Jun-12 23:57 UTC. Time now 2018-Jun-19 23:51 UTC.
Position N 26°15' W 079°26'.

Length 180 m; draft 10.3 m.

Type: Cargo ship. MMSI: 477462800.

Date/timePositionNaut miles runAvg speedWind from/ knotsBaromVisibWave heightAir tempDewpointWater temp
2018-Jun-12 23:57N 26°15' W 079°26'614.3
2018-Jun-12 23:30N 26°09' W 079°27'1114.5
2018-Jun-12 22:45N 25°58' W 079°28'414.6
2018-Jun-12 22:30N 25°55' W 079°29'1014.8
2018-Jun-12 21:51N 25°45' W 079°31'715.0
2018-Jun-12 21:25N 25°39' W 079°33'714.9
2018-Jun-12 20:58N 25°32' W 079°34'  
2018-Jun-06 04:05N 27°44' W 096°49'2 9.0
2018-Jun-06 03:53N 27°44' W 096°47'  
Track history (hours):
 
Tides and Currents Weather Stations Pressure Air Temp Water Temp Dewpoint Dewpoint Depression Visibility Wind Speed Wind Dir Waves Ship Positions

Stamford Pioneer

Last reported at 2018-Jun-12 23:57 UTC. Time now 2018-Jun-19 23:51 UTC.
Position N 26°15' W 079°26'.

Length 180 m; draft 10.3 m.

Type: Cargo ship. MMSI: 477462800.

Date/timePositionNaut miles runAvg speedWind from/ knotsBaromVisibWave heightAir tempDewpointWater temp
2018-Jun-12 23:57N 26°15' W 079°26'614.3
2018-Jun-12 23:30N 26°09' W 079°27'1114.5
2018-Jun-12 22:45N 25°58' W 079°28'414.6
2018-Jun-12 22:30N 25°55' W 079°29'1014.8
2018-Jun-12 21:51N 25°45' W 079°31'715.0
2018-Jun-12 21:25N 25°39' W 079°33'714.9
2018-Jun-12 20:58N 25°32' W 079°34'  
2018-Jun-06 04:05N 27°44' W 096°49'2 9.0
2018-Jun-06 03:53N 27°44' W 096°47'  

Dump ship's entire track history